Cresbard, South Dakota
Current Conditions -  °F | °C
As of 12:53 PM on Friday 24 Oct 2014 (Local Time) from KABR Reporting Station
Clear Clear  
Wind Chill: 68°   Ceiling: Unl
Heat Index: 68°   Visibility: 10mi
Dew Point: 42°   Wind: 5mph
Humidity: 39%   Direction: 240°WSW
Pressure: 29.88"   Gusts: NA
Location:  45.17°N, 98.95°W
Report Text: KABR 241753Z AUTO 24004KT 10SM CLR 20/06 A2988 RMK AO2 SLP122 T02000056 10200 20017 50003
Loading
Personal Weather Stations






























Interactive Weather Map
Tropical Storm Tracking
New forecast layout! Learn more

10-Day Weather Forecast

Advertisements
Track Severe Weather on mobile